createdAt,value
2019-02-07T00:01:00.870Z,99272.84
2019-02-07T00:03:30.383Z,99269.08
2019-02-07T00:05:59.828Z,99261.05
2019-02-07T00:08:29.269Z,99256.83
2019-02-07T00:10:58.716Z,99248.36
2019-02-07T00:13:28.154Z,99246.70
2019-02-07T00:15:57.606Z,99243.72
2019-02-07T00:18:27.046Z,99240.32
2019-02-07T00:20:56.563Z,99231.45
2019-02-07T00:23:25.999Z,99228.89
2019-02-07T00:25:55.444Z,99234.41
2019-02-07T00:28:24.950Z,99232.73
2019-02-07T00:30:54.471Z,99228.92
2019-02-07T00:33:23.911Z,99221.70
2019-02-07T00:35:55.092Z,99222.56
2019-02-07T00:38:24.532Z,99219.16
2019-02-07T00:40:53.985Z,99227.23
2019-02-07T00:43:23.421Z,99225.98
2019-02-07T00:45:52.866Z,99223.00
2019-02-07T00:48:22.302Z,99217.52
2019-02-07T00:50:52.033Z,99219.22
2019-02-07T00:53:21.464Z,99216.65
2019-02-07T00:55:50.914Z,99218.75
2019-02-07T00:58:20.349Z,99218.34
2019-02-07T01:00:49.860Z,99217.07
2019-02-07T01:03:19.297Z,99215.82
2019-02-07T01:05:48.738Z,99217.53
2019-02-07T01:08:18.178Z,99218.34
2019-02-07T01:10:47.705Z,99210.27
2019-02-07T01:13:17.359Z,99210.72
2019-02-07T01:15:46.871Z,99210.27
2019-02-07T01:18:16.371Z,99214.47
2019-02-07T01:20:45.821Z,99215.73
2019-02-07T01:23:15.328Z,99215.77
2019-02-07T01:25:44.778Z,99211.09
2019-02-07T01:28:14.220Z,99214.91
2019-02-07T01:30:43.670Z,99213.61
2019-02-07T01:33:13.102Z,99209.75
2019-02-07T01:35:42.558Z,99212.25
2019-02-07T01:38:11.986Z,99208.02
2019-02-07T01:40:41.426Z,99208.03
2019-02-07T01:43:10.863Z,99202.54
2019-02-07T01:45:40.312Z,99199.10
2019-02-07T01:48:09.755Z,99197.02
2019-02-07T01:50:39.203Z,99188.13
2019-02-07T01:53:09.015Z,99191.52
2019-02-07T01:55:39.043Z,99187.22
2019-02-07T01:58:08.474Z,99178.78
2019-02-07T02:00:37.919Z,99172.88
2019-02-07T02:03:07.357Z,99168.59
2019-02-07T02:05:36.885Z,99163.55
2019-02-07T02:08:06.318Z,99154.25
2019-02-07T02:10:35.764Z,99154.25
2019-02-07T02:13:05.372Z,99151.17
2019-02-07T02:15:34.794Z,99142.29
2019-02-07T02:18:04.993Z,99141.88
2019-02-07T02:20:34.470Z,99151.61
2019-02-07T02:23:03.907Z,99143.14
2019-02-07T02:25:33.914Z,99135.13
2019-02-07T02:28:03.364Z,99138.06
2019-02-07T02:30:35.708Z,99139.33
2019-02-07T02:33:06.076Z,99137.66
2019-02-07T02:35:35.508Z,99136.40
2019-02-07T02:38:05.494Z,99135.58
2019-02-07T02:40:34.935Z,99138.12
2019-02-07T02:43:04.387Z,99132.64
2019-02-07T02:45:37.473Z,99132.67
2019-02-07T02:48:05.431Z,99130.50
2019-02-07T02:50:34.871Z,99125.42
2019-02-07T02:53:04.320Z,99129.64
2019-02-07T02:55:38.516Z,99128.33
2019-02-07T02:58:08.036Z,99129.59
2019-02-07T03:00:46.286Z,99125.79
2019-02-07T03:03:17.379Z,99125.34
2019-02-07T03:05:52.595Z,99124.11
2019-02-07T03:08:24.518Z,99116.45
2019-02-07T03:11:13.521Z,99108.89
2019-02-07T03:13:53.805Z,99100.00
2019-02-07T03:16:28.695Z,99097.42
2019-02-07T03:19:01.170Z,99094.02
2019-02-07T03:21:36.904Z,99096.14
2019-02-07T03:24:08.314Z,99094.83
2019-02-07T03:26:57.730Z,99099.86
2019-02-07T03:29:44.930Z,99093.15
2019-02-07T03:32:18.521Z,99088.98
2019-02-07T03:34:49.595Z,99088.09
2019-02-07T03:37:29.156Z,99070.77
2019-02-07T03:40:05.986Z,99077.98
2019-02-07T03:42:40.102Z,99079.20
2019-02-07T03:45:28.070Z,99075.34
2019-02-07T03:47:59.141Z,99074.08
2019-02-07T03:50:46.299Z,99069.41
2019-02-07T03:53:32.224Z,99069.41
2019-02-07T03:56:10.455Z,99060.54
2019-02-07T03:58:50.161Z,99063.11
2019-02-07T04:01:30.439Z,99054.24
2019-02-07T04:04:04.226Z,99056.37
2019-02-07T04:06:38.001Z,99054.69
2019-02-07T04:09:10.898Z,99055.47
2019-02-07T04:11:58.203Z,99048.27
2019-02-07T04:14:27.409Z,99052.06
2019-02-07T04:17:10.549Z,99056.28
2019-02-07T04:19:39.781Z,99059.66
2019-02-07T04:22:29.298Z,99066.41
2019-02-07T04:25:02.823Z,99064.28
2019-02-07T04:27:49.169Z,99068.59
2019-02-07T04:30:36.145Z,99057.14
2019-02-07T04:33:23.092Z,99050.44
2019-02-07T04:36:06.258Z,99043.23
2019-02-07T04:38:53.162Z,99051.66
2019-02-07T04:41:39.477Z,99060.54
2019-02-07T04:44:20.397Z,99060.52
2019-02-07T04:47:00.481Z,99042.27
2019-02-07T04:49:31.570Z,99032.58
2019-02-07T04:52:02.642Z,99036.44
2019-02-07T04:54:33.737Z,99041.11
2019-02-07T04:57:07.455Z,99038.98
2019-02-07T04:59:41.204Z,99032.23
2019-02-07T05:02:14.940Z,99036.85
2019-02-07T05:04:46.029Z,99037.70
2019-02-07T05:07:29.383Z,99033.49
2019-02-07T05:10:16.785Z,99033.91
2019-02-07T05:12:58.024Z,99037.30
2019-02-07T05:15:31.588Z,99034.35
2019-02-07T05:18:02.675Z,99029.69
2019-02-07T05:20:45.701Z,99023.77
2019-02-07T05:23:16.791Z,99016.19
2019-02-07T05:26:04.957Z,99014.48
2019-02-07T05:28:36.089Z,99017.47
2019-02-07T05:31:07.503Z,99015.78
2019-02-07T05:33:54.913Z,99013.21
2019-02-07T05:36:35.246Z,99016.64
2019-02-07T05:39:12.348Z,99014.52
2019-02-07T05:41:58.677Z,99021.27
2019-02-07T05:44:35.225Z,99009.89
2019-02-07T05:47:09.450Z,99015.82
2019-02-07T05:49:44.359Z,99007.35
2019-02-07T05:52:17.857Z,99014.55
2019-02-07T05:54:51.380Z,99013.69
2019-02-07T05:57:28.178Z,99014.14
2019-02-07T06:00:08.084Z,99010.33
2019-02-07T06:02:39.167Z,99013.69
2019-02-07T06:05:18.077Z,99015.41
2019-02-07T06:07:49.532Z,99015.41
2019-02-07T06:10:25.097Z,99015.81
2019-02-07T06:13:00.541Z,99007.35
2019-02-07T06:15:40.605Z,99000.19
2019-02-07T06:18:17.643Z,99006.94
2019-02-07T06:20:48.730Z,99008.20
2019-02-07T06:23:28.742Z,99002.27
2019-02-07T06:26:08.745Z,98991.30
2019-02-07T06:28:42.438Z,98997.20
2019-02-07T06:31:11.654Z,98997.64
2019-02-07T06:33:59.069Z,98994.70
2019-02-07T06:36:48.517Z,98996.79
2019-02-07T06:39:28.240Z,98992.98
2019-02-07T06:42:00.794Z,99000.59
2019-02-07T06:44:35.857Z,98994.70
2019-02-07T06:47:13.377Z,98996.38
2019-02-07T06:49:43.665Z,98995.96
2019-02-07T06:52:31.053Z,98993.86
2019-02-07T06:55:07.804Z,98997.25
2019-02-07T06:57:51.813Z,98997.67
2019-02-07T07:00:22.972Z,98990.48
2019-02-07T07:03:00.042Z,98987.09
2019-02-07T07:05:47.127Z,98987.95
2019-02-07T07:08:18.192Z,98986.70
2019-02-07T07:10:49.293Z,98983.73
2019-02-07T07:13:32.769Z,98985.00
2019-02-07T07:16:03.874Z,98976.96
2019-02-07T07:18:34.986Z,98982.03
2019-02-07T07:21:11.870Z,98981.62
2019-02-07T07:23:49.097Z,98976.11
2019-02-07T07:26:30.255Z,98979.08
2019-02-07T07:29:02.235Z,98983.74
2019-02-07T07:31:37.898Z,98973.57
2019-02-07T07:34:24.994Z,98980.78
2019-02-07T07:36:56.121Z,98973.15
2019-02-07T07:39:35.986Z,98971.45
2019-02-07T07:42:16.322Z,98965.95
2019-02-07T07:45:02.454Z,98969.34
2019-02-07T07:47:42.459Z,98963.83
2019-02-07T07:50:12.408Z,98960.42
2019-02-07T07:52:44.626Z,98958.73
2019-02-07T07:55:18.207Z,98948.14
2019-02-07T07:57:52.026Z,98947.71
2019-02-07T08:00:28.898Z,98944.31
2019-02-07T08:03:05.422Z,98947.70
2019-02-07T08:05:39.229Z,98949.38
2019-02-07T08:08:26.556Z,98951.89
2019-02-07T08:10:57.662Z,98950.19
2019-02-07T08:13:31.429Z,98941.30
2019-02-07T08:16:02.564Z,98936.19
2019-02-07T08:18:36.662Z,98922.62
2019-02-07T08:21:13.268Z,98914.57
2019-02-07T08:23:50.072Z,98921.74
2019-02-07T08:26:21.170Z,98928.95
2019-02-07T08:28:58.322Z,98925.53
2019-02-07T08:31:44.640Z,98932.71
2019-02-07T08:34:31.985Z,98928.47
2019-02-07T08:37:19.107Z,98928.04
2019-02-07T08:39:50.247Z,98932.27
2019-02-07T08:42:23.995Z,98930.14
2019-02-07T08:45:11.643Z,98923.78
2019-02-07T08:47:59.268Z,98925.02
2019-02-07T08:50:36.540Z,98923.30
2019-02-07T08:53:07.695Z,98920.31
2019-02-07T08:55:41.247Z,98913.95
2019-02-07T08:58:12.614Z,98919.42
2019-02-07T09:00:43.692Z,98910.09
2019-02-07T09:03:15.150Z,98915.98
2019-02-07T09:05:48.631Z,98902.73
2019-02-07T09:08:35.800Z,98905.31
2019-02-07T09:11:23.450Z,98900.18
2019-02-07T09:13:57.082Z,98888.69
2019-02-07T09:16:32.155Z,98889.98
2019-02-07T09:19:19.924Z,98885.69
2019-02-07T09:21:59.791Z,98884.87
2019-02-07T09:24:46.639Z,98884.75
2019-02-07T09:27:20.397Z,98891.02
2019-02-07T09:30:07.676Z,98885.53
2019-02-07T09:32:41.412Z,98878.23
2019-02-07T09:35:27.930Z,98881.20
2019-02-07T09:37:59.009Z,98879.87
2019-02-07T09:40:32.731Z,98883.67
2019-02-07T09:43:15.844Z,98882.28
2019-02-07T09:45:49.565Z,98882.28
2019-02-07T09:48:23.599Z,98879.28
2019-02-07T09:50:54.741Z,98873.36
2019-02-07T09:53:37.745Z,98866.86
2019-02-07T09:56:17.506Z,98869.41
2019-02-07T09:59:04.726Z,98866.83
2019-02-07T10:01:38.986Z,98867.70
2019-02-07T10:04:10.291Z,98861.70
2019-02-07T10:06:39.557Z,98867.55
2019-02-07T10:09:12.373Z,98864.99
2019-02-07T10:11:52.171Z,98866.59
2019-02-07T10:14:23.752Z,98875.95
2019-02-07T10:17:10.880Z,98863.95
2019-02-07T10:19:47.656Z,98866.81
2019-02-07T10:22:21.408Z,98866.85
2019-02-07T10:25:00.959Z,98865.90
2019-02-07T10:27:32.035Z,98865.00
2019-02-07T10:30:03.117Z,98873.13
2019-02-07T10:32:50.412Z,98867.22
2019-02-07T10:35:36.483Z,98860.37
2019-02-07T10:38:11.871Z,98857.31
2019-02-07T10:40:49.841Z,98863.26
2019-02-07T10:43:36.883Z,98856.48
2019-02-07T10:46:08.683Z,98850.53
2019-02-07T10:48:44.523Z,98853.91
2019-02-07T10:51:13.656Z,98857.29
2019-02-07T10:54:00.885Z,98845.37
2019-02-07T10:56:37.913Z,98844.94
2019-02-07T10:59:11.839Z,98846.53
2019-02-07T11:01:42.907Z,98843.22
2019-02-07T11:04:26.337Z,98844.49
2019-02-07T11:07:15.635Z,98845.86
2019-02-07T11:09:52.631Z,98826.14
2019-02-07T11:12:26.884Z,98831.62
2019-02-07T11:15:06.965Z,98832.09
2019-02-07T11:17:53.485Z,98823.17
2019-02-07T11:20:40.403Z,98820.23
2019-02-07T11:23:17.384Z,98821.89
2019-02-07T11:26:05.425Z,98820.59
2019-02-07T11:28:36.522Z,98817.73
2019-02-07T11:31:07.612Z,98814.69
2019-02-07T11:33:41.373Z,98812.09
2019-02-07T11:36:24.148Z,98807.44
2019-02-07T11:38:57.916Z,98815.42
2019-02-07T11:41:29.004Z,98805.95
2019-02-07T11:44:00.082Z,98802.62
2019-02-07T11:46:37.788Z,98799.71
2019-02-07T11:49:20.714Z,98803.89
2019-02-07T11:51:57.459Z,98807.34
2019-02-07T11:54:48.426Z,98803.77
2019-02-07T11:57:17.616Z,98804.72
2019-02-07T12:00:06.985Z,98799.59
2019-02-07T12:02:44.016Z,98796.19
2019-02-07T12:05:22.279Z,98798.27
2019-02-07T12:07:51.476Z,98799.52
2019-02-07T12:10:26.557Z,98801.19
2019-02-07T12:13:12.651Z,98799.86
2019-02-07T12:15:49.768Z,98798.08
2019-02-07T12:18:31.493Z,98798.45
2019-02-07T12:21:11.693Z,98790.34
2019-02-07T12:23:51.952Z,98790.30
2019-02-07T12:26:35.187Z,98787.31
2019-02-07T12:29:15.370Z,98778.05
2019-02-07T12:31:47.258Z,98785.00
2019-02-07T12:34:21.316Z,98786.19
2019-02-07T12:37:07.395Z,98785.77
2019-02-07T12:39:47.476Z,98785.28
2019-02-07T12:42:33.547Z,98775.95
2019-02-07T12:45:04.630Z,98778.93
2019-02-07T12:47:47.697Z,98786.92
2019-02-07T12:50:35.136Z,98780.95
2019-02-07T12:53:12.306Z,98785.68
2019-02-07T12:55:52.097Z,98780.88
2019-02-07T12:58:16.866Z,98784.27
2019-02-07T13:00:50.720Z,98785.84
2019-02-07T13:03:28.790Z,98785.59
2019-02-07T13:05:59.871Z,98782.89
2019-02-07T13:08:42.941Z,98787.13
2019-02-07T13:11:13.015Z,98782.41
2019-02-07T13:14:00.220Z,98781.08
2019-02-07T13:16:36.973Z,98780.13
2019-02-07T13:19:24.165Z,98780.50
2019-02-07T13:21:57.983Z,98775.63
2019-02-07T13:24:32.595Z,98773.59
2019-02-07T13:27:20.243Z,98777.30
2019-02-07T13:29:51.301Z,98769.96
2019-02-07T13:32:34.565Z,98774.16
2019-02-07T13:35:17.219Z,98773.23
2019-02-07T13:37:48.304Z,98770.27
2019-02-07T13:40:24.997Z,98768.09
2019-02-07T13:43:00.208Z,98767.21
2019-02-07T13:45:29.605Z,98778.61
2019-02-07T13:48:03.624Z,98770.20
2019-02-07T13:50:50.472Z,98774.69
2019-02-07T13:53:30.704Z,98765.41
2019-02-07T13:56:01.788Z,98767.38
2019-02-07T13:58:50.229Z,98768.62
2019-02-07T14:01:24.011Z,98763.08
2019-02-07T14:03:55.090Z,98761.63
2019-02-07T14:06:29.125Z,98753.85
2019-02-07T14:09:01.547Z,98752.05
2019-02-07T14:11:47.468Z,98765.64
2019-02-07T14:14:18.534Z,98759.92
2019-02-07T14:16:55.370Z,98769.45
2019-02-07T14:19:41.658Z,98763.84
2019-02-07T14:22:29.349Z,98763.66
2019-02-07T14:25:16.391Z,98764.12
2019-02-07T14:27:47.472Z,98768.63
2019-02-07T14:30:28.872Z,98776.47
2019-02-07T14:32:59.967Z,98781.97
2019-02-07T14:35:43.411Z,98776.63
2019-02-07T14:38:29.763Z,98775.55
2019-02-07T14:41:09.397Z,98778.80
2019-02-07T14:43:46.199Z,98780.47
2019-02-07T14:46:20.252Z,98774.06
2019-02-07T14:48:49.691Z,98767.17
2019-02-07T14:51:19.131Z,98765.38
2019-02-07T14:53:48.573Z,98768.36
2019-02-07T14:56:18.009Z,98765.84
2019-02-07T14:58:47.830Z,98771.73
2019-02-07T15:01:17.267Z,98770.00
2019-02-07T15:03:46.709Z,98772.29
2019-02-07T15:06:16.139Z,98776.28
2019-02-07T15:08:45.579Z,98778.92
2019-02-07T15:11:15.123Z,98774.06
2019-02-07T15:13:44.899Z,98782.14
2019-02-07T15:16:14.403Z,98782.69
2019-02-07T15:18:46.015Z,98788.58
2019-02-07T15:21:15.081Z,98791.02
2019-02-07T15:23:44.527Z,98792.38
2019-02-07T15:26:13.962Z,98799.74
2019-02-07T15:28:43.681Z,98799.86
2019-02-07T15:31:13.117Z,98795.59
2019-02-07T15:33:42.559Z,98799.98
2019-02-07T15:36:12.065Z,98800.41
2019-02-07T15:38:41.776Z,98804.48
2019-02-07T15:41:11.275Z,98802.23
2019-02-07T15:43:41.096Z,98811.15
2019-02-07T15:46:11.866Z,98806.06
2019-02-07T15:48:41.588Z,98809.13
2019-02-07T15:51:11.853Z,98805.21
2019-02-07T15:53:41.300Z,98809.55
2019-02-07T15:56:10.735Z,98811.11
2019-02-07T15:58:42.327Z,98821.13
2019-02-07T16:01:19.848Z,98820.66
2019-02-07T16:03:53.732Z,98817.63
2019-02-07T16:06:23.159Z,98812.43
2019-02-07T16:08:52.604Z,98814.25
2019-02-07T16:11:22.041Z,98810.92
2019-02-07T16:13:51.555Z,98809.60
2019-02-07T16:16:20.988Z,98800.68
2019-02-07T16:18:50.881Z,98815.95
2019-02-07T16:21:20.312Z,98809.21
2019-02-07T16:23:49.749Z,98813.59
2019-02-07T16:26:19.187Z,98822.44
2019-02-07T16:28:48.628Z,98822.48
2019-02-07T16:31:18.063Z,98833.61
2019-02-07T16:33:47.502Z,98832.80
2019-02-07T16:36:17.072Z,98831.41
2019-02-07T16:38:46.509Z,98830.51
2019-02-07T16:41:16.098Z,98822.41
2019-02-07T16:43:45.536Z,98822.05
2019-02-07T16:46:15.053Z,98826.86
2019-02-07T16:48:44.476Z,98830.23
2019-02-07T16:51:13.991Z,98817.52
2019-02-07T16:53:43.903Z,98824.61
2019-02-07T16:56:13.345Z,98825.93
2019-02-07T16:58:43.441Z,98826.78
2019-02-07T17:01:12.946Z,98826.86
2019-02-07T17:03:42.377Z,98836.71
2019-02-07T17:06:11.827Z,98838.38
2019-02-07T17:08:41.637Z,98835.89
2019-02-07T17:11:11.223Z,98843.69
2019-02-07T17:13:40.658Z,98844.86
2019-02-07T17:16:10.241Z,98857.66
2019-02-07T17:18:39.678Z,98854.28
2019-02-07T17:21:12.556Z,98858.19
2019-02-07T17:23:40.350Z,98855.74
2019-02-07T17:26:10.166Z,98866.59
2019-02-07T17:28:39.592Z,98872.23
2019-02-07T17:31:09.275Z,98889.27
2019-02-07T17:33:38.707Z,98889.63
2019-02-07T17:36:08.218Z,98882.33
2019-02-07T17:38:37.839Z,98893.53
2019-02-07T17:41:07.357Z,98893.42
2019-02-07T17:43:36.788Z,98894.73
2019-02-07T17:46:06.364Z,98891.25
2019-02-07T17:48:35.932Z,98895.16
2019-02-07T17:51:05.439Z,98889.23
2019-02-07T17:53:35.250Z,98902.31
2019-02-07T17:56:04.687Z,98898.90
2019-02-07T17:58:34.125Z,98904.02
2019-02-07T18:01:06.348Z,98911.77
2019-02-07T18:03:35.781Z,98911.27
2019-02-07T18:06:06.434Z,98918.45
2019-02-07T18:08:36.203Z,98916.28
2019-02-07T18:11:06.290Z,98924.81
2019-02-07T18:13:36.068Z,98937.61
2019-02-07T18:16:06.055Z,98934.34
2019-02-07T18:18:35.482Z,98930.89
2019-02-07T18:21:04.995Z,98936.96
2019-02-07T18:23:34.433Z,98941.79
2019-02-07T18:26:03.934Z,98943.79
2019-02-07T18:28:33.371Z,98932.53
2019-02-07T18:31:02.825Z,98927.61
2019-02-07T18:33:32.332Z,98936.17
2019-02-07T18:36:01.772Z,98941.09
2019-02-07T18:38:31.209Z,98944.91
2019-02-07T18:41:00.653Z,98956.52
2019-02-07T18:43:30.093Z,98959.92
2019-02-07T18:45:59.538Z,98960.52
2019-02-07T18:48:28.970Z,98967.77
2019-02-07T18:50:58.407Z,98974.67
2019-02-07T18:53:28.193Z,98981.86
2019-02-07T18:55:57.640Z,98989.50
2019-02-07T18:58:27.084Z,98997.51
2019-02-07T19:00:56.527Z,99002.35
2019-02-07T19:03:25.960Z,99009.48
2019-02-07T19:05:55.400Z,99011.22
2019-02-07T19:08:25.012Z,99009.66
2019-02-07T19:10:54.462Z,99005.09
2019-02-07T19:13:23.892Z,99015.83
2019-02-07T19:15:57.847Z,99020.45
2019-02-07T19:18:27.284Z,99028.98
2019-02-07T19:20:56.846Z,99031.06
2019-02-07T19:23:26.336Z,99033.19
2019-02-07T19:25:55.787Z,99038.88
2019-02-07T19:28:25.224Z,99037.54
2019-02-07T19:30:54.666Z,99039.72
2019-02-07T19:33:24.103Z,99041.42
2019-02-07T19:35:53.627Z,99043.96
2019-02-07T19:38:23.338Z,99046.28
2019-02-07T19:40:52.790Z,99051.00
2019-02-07T19:43:22.226Z,99052.73
2019-02-07T19:45:51.664Z,99056.63
2019-02-07T19:48:21.095Z,99058.21
2019-02-07T19:50:50.543Z,99061.70
2019-02-07T19:53:20.349Z,99061.67
2019-02-07T19:55:49.790Z,99063.55
2019-02-07T19:58:19.222Z,99069.97
2019-02-07T20:00:48.662Z,99075.53
2019-02-07T20:03:18.095Z,99075.08
2019-02-07T20:05:47.543Z,99074.38
2019-02-07T20:08:17.145Z,99072.20
2019-02-07T20:10:46.586Z,99074.33
2019-02-07T20:13:16.041Z,99082.07
2019-02-07T20:15:45.535Z,99081.60
2019-02-07T20:18:15.035Z,99077.83
2019-02-07T20:20:44.480Z,99082.97
2019-02-07T20:23:13.906Z,99084.58
2019-02-07T20:25:43.625Z,99085.36
2019-02-07T20:28:13.057Z,99082.85
2019-02-07T20:30:45.181Z,99081.69
2019-02-07T20:33:14.689Z,99088.95
2019-02-07T20:35:44.111Z,99094.56
2019-02-07T20:38:13.547Z,99095.72
2019-02-07T20:40:43.464Z,99103.17
2019-02-07T20:43:12.913Z,99098.61
2019-02-07T20:45:42.357Z,99099.08
2019-02-07T20:48:11.798Z,99110.17
2019-02-07T20:50:41.239Z,99107.67
2019-02-07T20:53:10.770Z,99111.49
2019-02-07T20:55:45.265Z,99111.04
2019-02-07T20:58:14.883Z,99110.73
2019-02-07T21:00:44.307Z,99114.66
2019-02-07T21:03:13.924Z,99120.64
2019-02-07T21:05:43.412Z,99118.13
2019-02-07T21:08:12.855Z,99116.05
2019-02-07T21:10:42.319Z,99129.30
2019-02-07T21:13:11.835Z,99125.90
2019-02-07T21:15:41.340Z,99133.48
2019-02-07T21:18:10.793Z,99144.62
2019-02-07T21:20:40.228Z,99143.35
2019-02-07T21:23:09.750Z,99136.98
2019-02-07T21:25:51.266Z,99140.02
2019-02-07T21:28:20.708Z,99146.42
2019-02-07T21:30:50.155Z,99145.05
2019-02-07T21:33:19.643Z,99151.47
2019-02-07T21:35:49.071Z,99153.67
2019-02-07T21:38:18.519Z,99160.02
2019-02-07T21:40:47.966Z,99161.83
2019-02-07T21:43:17.394Z,99168.61
2019-02-07T21:45:46.846Z,99170.83
2019-02-07T21:48:16.286Z,99177.19
2019-02-07T21:50:45.965Z,99178.77
2019-02-07T21:53:15.582Z,99177.13
2019-02-07T21:55:45.015Z,99186.47
2019-02-07T21:58:14.733Z,99178.29
2019-02-07T22:00:46.376Z,99183.02
2019-02-07T22:03:16.526Z,99185.67
2019-02-07T22:05:45.961Z,99191.69
2019-02-07T22:08:15.406Z,99191.25
2019-02-07T22:10:44.831Z,99198.41
2019-02-07T22:13:14.544Z,99192.03
2019-02-07T22:15:43.981Z,99202.75
2019-02-07T22:18:13.423Z,99210.39
2019-02-07T22:20:42.853Z,99216.73
2019-02-07T22:23:12.292Z,99212.05
2019-02-07T22:25:41.728Z,99212.86
2019-02-07T22:28:12.215Z,99217.14
2019-02-07T22:30:42.257Z,99218.89
2019-02-07T22:33:11.762Z,99226.45
2019-02-07T22:35:41.187Z,99224.83
2019-02-07T22:38:10.703Z,99227.77
2019-02-07T22:40:40.423Z,99237.91
2019-02-07T22:43:10.046Z,99241.30
2019-02-07T22:45:39.472Z,99244.30
2019-02-07T22:48:08.918Z,99239.20
2019-02-07T22:50:38.521Z,99241.36
2019-02-07T22:53:08.106Z,99243.95
2019-02-07T22:55:37.533Z,99244.28
2019-02-07T22:58:07.686Z,99254.18
2019-02-07T23:00:44.845Z,99251.22
2019-02-07T23:03:16.583Z,99257.56
2019-02-07T23:05:46.255Z,99252.89
2019-02-07T23:08:16.036Z,99252.41
2019-02-07T23:10:45.906Z,99249.03
2019-02-07T23:13:16.115Z,99251.58
2019-02-07T23:15:45.613Z,99252.06
2019-02-07T23:18:15.129Z,99253.00
2019-02-07T23:20:45.358Z,99258.14
2019-02-07T23:23:14.820Z,99258.56
2019-02-07T23:25:44.633Z,99265.83
2019-02-07T23:28:14.060Z,99265.41
2019-02-07T23:30:43.502Z,99263.28
2019-02-07T23:33:12.930Z,99264.09
2019-02-07T23:35:42.377Z,99269.20
2019-02-07T23:38:11.882Z,99266.23
2019-02-07T23:40:41.608Z,99272.19
2019-02-07T23:43:11.574Z,99264.08
2019-02-07T23:45:41.018Z,99270.03
2019-02-07T23:48:10.516Z,99266.63
2019-02-07T23:50:39.959Z,99270.91
2019-02-07T23:53:15.219Z,99278.98
2019-02-07T23:55:41.127Z,99269.11
2019-02-07T23:58:10.569Z,99269.02
